sensor_id;sensor_type;location;lat;lon;timestamp;P1;durP1;ratioP1;P2;durP2;ratioP2
8411;SDS011;4243;49.296;11.348;2023-05-10T00:00:41;118.67;;;2.50;;
8411;SDS011;4243;49.296;11.348;2023-05-10T00:03:09;118.90;;;2.60;;
8411;SDS011;4243;49.296;11.348;2023-05-10T00:05:37;118.87;;;2.63;;
8411;SDS011;4243;49.296;11.348;2023-05-10T00:08:04;119.07;;;2.70;;
8411;SDS011;4243;49.296;11.348;2023-05-10T00:10:31;119.00;;;2.53;;
8411;SDS011;4243;49.296;11.348;2023-05-10T00:12:58;119.57;;;2.70;;
8411;SDS011;4243;49.296;11.348;2023-05-10T00:15:26;119.40;;;2.73;;
8411;SDS011;4243;49.296;11.348;2023-05-10T00:17:53;118.73;;;3.00;;
8411;SDS011;4243;49.296;11.348;2023-05-10T00:20:21;118.27;;;2.80;;
8411;SDS011;4243;49.296;11.348;2023-05-10T00:22:48;118.77;;;2.77;;
8411;SDS011;4243;49.296;11.348;2023-05-10T00:25:15;119.17;;;2.90;;
8411;SDS011;4243;49.296;11.348;2023-05-10T00:27:42;119.30;;;2.90;;
8411;SDS011;4243;49.296;11.348;2023-05-10T00:30:10;119.07;;;2.90;;
8411;SDS011;4243;49.296;11.348;2023-05-10T00:32:37;118.87;;;2.80;;
8411;SDS011;4243;49.296;11.348;2023-05-10T00:35:05;118.77;;;2.70;;
8411;SDS011;4243;49.296;11.348;2023-05-10T00:37:33;119.17;;;2.80;;
8411;SDS011;4243;49.296;11.348;2023-05-10T00:40:01;118.97;;;2.90;;
8411;SDS011;4243;49.296;11.348;2023-05-10T00:42:28;119.20;;;2.80;;
8411;SDS011;4243;49.296;11.348;2023-05-10T00:44:55;118.90;;;2.97;;
8411;SDS011;4243;49.296;11.348;2023-05-10T00:47:23;118.73;;;2.67;;
8411;SDS011;4243;49.296;11.348;2023-05-10T00:49:50;118.70;;;2.80;;
8411;SDS011;4243;49.296;11.348;2023-05-10T00:52:18;119.13;;;2.70;;
8411;SDS011;4243;49.296;11.348;2023-05-10T00:54:46;118.20;;;2.70;;
8411;SDS011;4243;49.296;11.348;2023-05-10T00:57:13;118.50;;;2.80;;
8411;SDS011;4243;49.296;11.348;2023-05-10T00:59:41;118.80;;;2.70;;
8411;SDS011;4243;49.296;11.348;2023-05-10T01:02:08;118.33;;;2.90;;
8411;SDS011;4243;49.296;11.348;2023-05-10T01:04:35;118.70;;;2.80;;
8411;SDS011;4243;49.296;11.348;2023-05-10T01:07:04;119.07;;;3.13;;
8411;SDS011;4243;49.296;11.348;2023-05-10T01:09:31;119.10;;;3.20;;
8411;SDS011;4243;49.296;11.348;2023-05-10T01:12:00;119.20;;;3.53;;
8411;SDS011;4243;49.296;11.348;2023-05-10T01:14:29;119.13;;;3.60;;
8411;SDS011;4243;49.296;11.348;2023-05-10T01:16:56;119.22;;;3.47;;
8411;SDS011;4243;49.296;11.348;2023-05-10T01:19:27;118.27;;;3.60;;
8411;SDS011;4243;49.296;11.348;2023-05-10T01:22:06;118.77;;;3.20;;
8411;SDS011;4243;49.296;11.348;2023-05-10T01:31:17;118.97;;;2.70;;
8411;SDS011;4243;49.296;11.348;2023-05-10T01:34:17;118.83;;;2.63;;
8411;SDS011;4243;49.296;11.348;2023-05-10T01:36:55;119.47;;;2.57;;
8411;SDS011;4243;49.296;11.348;2023-05-10T01:39:36;118.40;;;2.57;;
8411;SDS011;4243;49.296;11.348;2023-05-10T01:42:36;119.20;;;2.73;;
8411;SDS011;4243;49.296;11.348;2023-05-10T01:45:19;119.10;;;2.63;;
8411;SDS011;4243;49.296;11.348;2023-05-10T01:47:58;119.20;;;2.70;;
8411;SDS011;4243;49.296;11.348;2023-05-10T01:50:34;118.77;;;2.67;;
8411;SDS011;4243;49.296;11.348;2023-05-10T01:53:07;118.90;;;2.70;;
8411;SDS011;4243;49.296;11.348;2023-05-10T01:55:44;119.00;;;2.70;;
8411;SDS011;4243;49.296;11.348;2023-05-10T01:58:19;119.60;;;2.67;;
8411;SDS011;4243;49.296;11.348;2023-05-10T02:00:52;119.13;;;2.77;;
8411;SDS011;4243;49.296;11.348;2023-05-10T02:03:22;118.67;;;2.80;;
8411;SDS011;4243;49.296;11.348;2023-05-10T02:05:52;118.57;;;2.63;;
8411;SDS011;4243;49.296;11.348;2023-05-10T02:08:22;119.20;;;2.67;;
8411;SDS011;4243;49.296;11.348;2023-05-10T02:10:51;119.07;;;2.70;;
8411;SDS011;4243;49.296;11.348;2023-05-10T02:13:23;119.47;;;2.60;;
8411;SDS011;4243;49.296;11.348;2023-05-10T02:15:53;119.03;;;2.60;;
8411;SDS011;4243;49.296;11.348;2023-05-10T02:18:21;119.30;;;2.50;;
8411;SDS011;4243;49.296;11.348;2023-05-10T02:20:50;119.13;;;2.43;;
8411;SDS011;4243;49.296;11.348;2023-05-10T02:23:21;118.60;;;2.50;;
8411;SDS011;4243;49.296;11.348;2023-05-10T02:25:50;118.80;;;2.60;;
8411;SDS011;4243;49.296;11.348;2023-05-10T02:28:21;119.00;;;2.50;;
8411;SDS011;4243;49.296;11.348;2023-05-10T02:30:52;119.57;;;2.40;;
8411;SDS011;4243;49.296;11.348;2023-05-10T02:33:21;118.97;;;2.50;;
8411;SDS011;4243;49.296;11.348;2023-05-10T02:35:51;119.03;;;2.40;;
8411;SDS011;4243;49.296;11.348;2023-05-10T02:38:20;119.00;;;2.40;;
8411;SDS011;4243;49.296;11.348;2023-05-10T02:40:49;118.80;;;2.50;;
8411;SDS011;4243;49.296;11.348;2023-05-10T02:43:18;118.90;;;2.47;;
8411;SDS011;4243;49.296;11.348;2023-05-10T02:45:49;119.10;;;2.50;;
8411;SDS011;4243;49.296;11.348;2023-05-10T02:48:16;119.23;;;2.60;;
8411;SDS011;4243;49.296;11.348;2023-05-10T02:50:44;118.90;;;2.40;;
8411;SDS011;4243;49.296;11.348;2023-05-10T02:53:30;119.00;;;2.60;;
8411;SDS011;4243;49.296;11.348;2023-05-10T02:56:01;119.20;;;2.47;;
8411;SDS011;4243;49.296;11.348;2023-05-10T02:58:39;119.40;;;2.50;;
8411;SDS011;4243;49.296;11.348;2023-05-10T03:01:07;119.03;;;2.67;;
8411;SDS011;4243;49.296;11.348;2023-05-10T03:03:34;119.17;;;2.57;;
8411;SDS011;4243;49.296;11.348;2023-05-10T03:06:02;119.30;;;2.73;;
8411;SDS011;4243;49.296;11.348;2023-05-10T03:08:30;119.30;;;2.70;;
8411;SDS011;4243;49.296;11.348;2023-05-10T03:11:17;119.77;;;2.70;;
8411;SDS011;4243;49.296;11.348;2023-05-10T03:19:58;119.20;;;2.63;;
8411;SDS011;4243;49.296;11.348;2023-05-10T03:22:37;119.10;;;2.63;;
8411;SDS011;4243;49.296;11.348;2023-05-10T03:25:12;119.33;;;2.57;;
8411;SDS011;4243;49.296;11.348;2023-05-10T03:27:42;119.37;;;2.50;;
8411;SDS011;4243;49.296;11.348;2023-05-10T03:30:12;118.80;;;2.67;;
8411;SDS011;4243;49.296;11.348;2023-05-10T03:32:40;119.27;;;2.63;;
8411;SDS011;4243;49.296;11.348;2023-05-10T03:35:08;119.30;;;2.77;;
8411;SDS011;4243;49.296;11.348;2023-05-10T03:37:38;119.20;;;2.70;;
8411;SDS011;4243;49.296;11.348;2023-05-10T03:40:06;119.37;;;2.70;;
8411;SDS011;4243;49.296;11.348;2023-05-10T03:42:38;119.30;;;2.70;;
8411;SDS011;4243;49.296;11.348;2023-05-10T03:45:06;119.03;;;2.70;;
8411;SDS011;4243;49.296;11.348;2023-05-10T03:47:35;119.50;;;2.57;;
8411;SDS011;4243;49.296;11.348;2023-05-10T03:50:03;119.50;;;2.60;;
8411;SDS011;4243;49.296;11.348;2023-05-10T03:52:31;118.70;;;2.50;;
8411;SDS011;4243;49.296;11.348;2023-05-10T03:54:59;119.20;;;2.60;;
8411;SDS011;4243;49.296;11.348;2023-05-10T03:57:26;119.40;;;2.50;;
8411;SDS011;4243;49.296;11.348;2023-05-10T03:59:54;118.37;;;2.50;;
8411;SDS011;4243;49.296;11.348;2023-05-10T04:02:22;119.33;;;2.60;;
8411;SDS011;4243;49.296;11.348;2023-05-10T04:04:50;119.37;;;2.50;;
8411;SDS011;4243;49.296;11.348;2023-05-10T04:07:19;119.50;;;2.70;;
8411;SDS011;4243;49.296;11.348;2023-05-10T04:09:46;119.07;;;2.60;;
8411;SDS011;4243;49.296;11.348;2023-05-10T04:12:14;119.20;;;2.73;;
8411;SDS011;4243;49.296;11.348;2023-05-10T04:14:41;119.57;;;2.90;;
8411;SDS011;4243;49.296;11.348;2023-05-10T04:17:09;119.43;;;2.70;;
8411;SDS011;4243;49.296;11.348;2023-05-10T04:19:36;119.37;;;2.60;;
8411;SDS011;4243;49.296;11.348;2023-05-10T04:22:04;119.30;;;2.70;;
8411;SDS011;4243;49.296;11.348;2023-05-10T04:24:31;118.80;;;2.70;;
8411;SDS011;4243;49.296;11.348;2023-05-10T04:26:59;118.90;;;2.70;;
8411;SDS011;4243;49.296;11.348;2023-05-10T04:29:26;118.07;;;2.70;;
8411;SDS011;4243;49.296;11.348;2023-05-10T04:31:54;119.00;;;2.60;;
8411;SDS011;4243;49.296;11.348;2023-05-10T04:34:22;118.77;;;2.60;;
8411;SDS011;4243;49.296;11.348;2023-05-10T04:36:50;118.90;;;2.73;;
8411;SDS011;4243;49.296;11.348;2023-05-10T04:39:18;118.83;;;2.70;;
8411;SDS011;4243;49.296;11.348;2023-05-10T04:41:45;118.47;;;2.70;;
8411;SDS011;4243;49.296;11.348;2023-05-10T04:44:12;118.63;;;2.60;;
8411;SDS011;4243;49.296;11.348;2023-05-10T04:46:40;119.10;;;2.60;;
8411;SDS011;4243;49.296;11.348;2023-05-10T04:49:07;118.90;;;2.60;;
8411;SDS011;4243;49.296;11.348;2023-05-10T04:51:35;119.17;;;2.63;;
8411;SDS011;4243;49.296;11.348;2023-05-10T04:54:02;118.80;;;2.53;;
8411;SDS011;4243;49.296;11.348;2023-05-10T04:56:32;118.93;;;2.60;;
8411;SDS011;4243;49.296;11.348;2023-05-10T04:59:00;118.63;;;2.80;;
8411;SDS011;4243;49.296;11.348;2023-05-10T05:01:27;119.20;;;2.80;;
8411;SDS011;4243;49.296;11.348;2023-05-10T05:03:55;119.23;;;2.70;;
8411;SDS011;4243;49.296;11.348;2023-05-10T05:06:23;119.37;;;2.70;;
8411;SDS011;4243;49.296;11.348;2023-05-10T05:08:51;119.37;;;2.60;;
8411;SDS011;4243;49.296;11.348;2023-05-10T05:11:18;119.20;;;2.70;;
8411;SDS011;4243;49.296;11.348;2023-05-10T05:13:45;119.00;;;2.67;;
8411;SDS011;4243;49.296;11.348;2023-05-10T05:16:13;119.00;;;2.60;;
8411;SDS011;4243;49.296;11.348;2023-05-10T05:18:40;119.37;;;2.70;;
8411;SDS011;4243;49.296;11.348;2023-05-10T05:21:14;117.40;;;2.67;;
8411;SDS011;4243;49.296;11.348;2023-05-10T05:23:43;118.37;;;2.70;;
8411;SDS011;4243;49.296;11.348;2023-05-10T05:26:10;119.00;;;2.70;;
8411;SDS011;4243;49.296;11.348;2023-05-10T05:28:38;119.30;;;2.73;;
8411;SDS011;4243;49.296;11.348;2023-05-10T05:31:06;119.30;;;2.67;;
8411;SDS011;4243;49.296;11.348;2023-05-10T05:33:34;118.97;;;2.60;;
8411;SDS011;4243;49.296;11.348;2023-05-10T05:36:02;119.00;;;2.70;;
8411;SDS011;4243;49.296;11.348;2023-05-10T05:38:31;119.03;;;2.60;;
8411;SDS011;4243;49.296;11.348;2023-05-10T05:40:59;119.30;;;2.70;;
8411;SDS011;4243;49.296;11.348;2023-05-10T05:43:27;119.40;;;2.53;;
8411;SDS011;4243;49.296;11.348;2023-05-10T05:45:58;118.90;;;2.63;;
8411;SDS011;4243;49.296;11.348;2023-05-10T05:48:26;119.20;;;2.60;;
8411;SDS011;4243;49.296;11.348;2023-05-10T05:50:56;119.23;;;2.70;;
8411;SDS011;4243;49.296;11.348;2023-05-10T05:53:24;119.07;;;2.70;;
8411;SDS011;4243;49.296;11.348;2023-05-10T05:55:52;119.27;;;2.60;;
8411;SDS011;4243;49.296;11.348;2023-05-10T05:58:24;119.07;;;2.67;;
8411;SDS011;4243;49.296;11.348;2023-05-10T06:00:52;119.23;;;2.60;;
8411;SDS011;4243;49.296;11.348;2023-05-10T06:03:19;118.80;;;2.90;;
8411;SDS011;4243;49.296;11.348;2023-05-10T06:05:47;118.90;;;2.70;;
8411;SDS011;4243;49.296;11.348;2023-05-10T06:08:15;119.27;;;2.67;;
8411;SDS011;4243;49.296;11.348;2023-05-10T06:10:42;118.40;;;2.77;;
8411;SDS011;4243;49.296;11.348;2023-05-10T06:13:09;118.63;;;2.80;;
8411;SDS011;4243;49.296;11.348;2023-05-10T06:15:37;118.90;;;2.70;;
8411;SDS011;4243;49.296;11.348;2023-05-10T06:18:04;118.83;;;2.77;;
8411;SDS011;4243;49.296;11.348;2023-05-10T06:20:32;118.47;;;2.60;;
8411;SDS011;4243;49.296;11.348;2023-05-10T06:22:59;117.90;;;2.63;;
8411;SDS011;4243;49.296;11.348;2023-05-10T06:25:27;118.50;;;2.57;;
8411;SDS011;4243;49.296;11.348;2023-05-10T06:27:54;118.07;;;2.47;;
8411;SDS011;4243;49.296;11.348;2023-05-10T06:30:24;118.37;;;2.80;;
8411;SDS011;4243;49.296;11.348;2023-05-10T06:32:55;118.03;;;2.70;;
8411;SDS011;4243;49.296;11.348;2023-05-10T06:35:23;117.70;;;2.43;;
8411;SDS011;4243;49.296;11.348;2023-05-10T06:37:50;118.20;;;2.53;;
8411;SDS011;4243;49.296;11.348;2023-05-10T06:40:18;118.77;;;2.60;;
8411;SDS011;4243;49.296;11.348;2023-05-10T06:42:46;118.13;;;2.53;;
8411;SDS011;4243;49.296;11.348;2023-05-10T06:45:14;118.30;;;2.50;;
8411;SDS011;4243;49.296;11.348;2023-05-10T06:47:42;118.27;;;2.60;;
8411;SDS011;4243;49.296;11.348;2023-05-10T06:50:10;118.33;;;2.63;;
8411;SDS011;4243;49.296;11.348;2023-05-10T06:52:38;118.10;;;2.60;;
8411;SDS011;4243;49.296;11.348;2023-05-10T06:55:06;117.77;;;2.60;;
8411;SDS011;4243;49.296;11.348;2023-05-10T06:57:34;117.40;;;2.40;;
8411;SDS011;4243;49.296;11.348;2023-05-10T07:00:02;118.10;;;2.60;;
8411;SDS011;4243;49.296;11.348;2023-05-10T07:02:33;118.03;;;2.47;;
8411;SDS011;4243;49.296;11.348;2023-05-10T07:05:00;118.10;;;2.50;;
8411;SDS011;4243;49.296;11.348;2023-05-10T07:07:28;118.03;;;2.53;;
8411;SDS011;4243;49.296;11.348;2023-05-10T07:09:56;117.93;;;2.57;;
8411;SDS011;4243;49.296;11.348;2023-05-10T07:12:24;118.20;;;2.47;;
8411;SDS011;4243;49.296;11.348;2023-05-10T07:14:51;118.00;;;2.60;;
8411;SDS011;4243;49.296;11.348;2023-05-10T07:17:19;117.70;;;2.50;;
8411;SDS011;4243;49.296;11.348;2023-05-10T07:19:46;118.17;;;2.37;;
8411;SDS011;4243;49.296;11.348;2023-05-10T07:22:14;117.93;;;2.40;;
8411;SDS011;4243;49.296;11.348;2023-05-10T07:24:43;117.63;;;2.37;;
8411;SDS011;4243;49.296;11.348;2023-05-10T07:27:10;117.40;;;2.40;;
8411;SDS011;4243;49.296;11.348;2023-05-10T07:29:39;117.37;;;2.30;;
8411;SDS011;4243;49.296;11.348;2023-05-10T07:32:06;117.57;;;2.40;;
8411;SDS011;4243;49.296;11.348;2023-05-10T07:34:34;116.93;;;2.27;;
8411;SDS011;4243;49.296;11.348;2023-05-10T07:37:01;117.67;;;2.40;;
8411;SDS011;4243;49.296;11.348;2023-05-10T07:39:28;117.70;;;2.30;;
8411;SDS011;4243;49.296;11.348;2023-05-10T07:41:55;117.30;;;2.30;;
8411;SDS011;4243;49.296;11.348;2023-05-10T07:44:23;117.43;;;2.30;;
8411;SDS011;4243;49.296;11.348;2023-05-10T07:46:50;117.50;;;2.23;;
8411;SDS011;4243;49.296;11.348;2023-05-10T07:49:23;117.57;;;2.40;;
8411;SDS011;4243;49.296;11.348;2023-05-10T07:51:50;117.90;;;2.40;;
8411;SDS011;4243;49.296;11.348;2023-05-10T07:54:18;117.63;;;2.40;;
8411;SDS011;4243;49.296;11.348;2023-05-10T07:56:46;117.67;;;2.40;;
8411;SDS011;4243;49.296;11.348;2023-05-10T07:59:16;117.77;;;2.40;;
8411;SDS011;4243;49.296;11.348;2023-05-10T08:03:41;117.60;;;2.23;;
8411;SDS011;4243;49.296;11.348;2023-05-10T08:06:09;117.60;;;2.20;;
8411;SDS011;4243;49.296;11.348;2023-05-10T08:08:36;117.40;;;2.40;;
8411;SDS011;4243;49.296;11.348;2023-05-10T08:11:03;117.60;;;2.17;;
8411;SDS011;4243;49.296;11.348;2023-05-10T08:13:31;117.53;;;2.50;;
8411;SDS011;4243;49.296;11.348;2023-05-10T08:15:58;117.77;;;2.23;;
8411;SDS011;4243;49.296;11.348;2023-05-10T08:18:26;118.00;;;2.43;;
8411;SDS011;4243;49.296;11.348;2023-05-10T08:20:54;117.40;;;2.20;;
8411;SDS011;4243;49.296;11.348;2023-05-10T08:23:21;117.17;;;2.20;;
8411;SDS011;4243;49.296;11.348;2023-05-10T08:25:48;117.50;;;2.20;;
8411;SDS011;4243;49.296;11.348;2023-05-10T08:28:16;116.60;;;2.20;;
8411;SDS011;4243;49.296;11.348;2023-05-10T08:30:43;116.93;;;2.30;;
8411;SDS011;4243;49.296;11.348;2023-05-10T08:33:10;117.00;;;2.33;;
8411;SDS011;4243;49.296;11.348;2023-05-10T08:35:37;117.50;;;2.30;;
8411;SDS011;4243;49.296;11.348;2023-05-10T08:38:04;116.70;;;2.20;;
8411;SDS011;4243;49.296;11.348;2023-05-10T08:40:31;117.27;;;2.33;;
8411;SDS011;4243;49.296;11.348;2023-05-10T08:43:01;116.87;;;2.20;;
8411;SDS011;4243;49.296;11.348;2023-05-10T08:45:44;117.00;;;2.23;;
8411;SDS011;4243;49.296;11.348;2023-05-10T08:48:13;116.77;;;2.20;;
8411;SDS011;4243;49.296;11.348;2023-05-10T08:50:42;116.60;;;2.20;;
8411;SDS011;4243;49.296;11.348;2023-05-10T08:53:11;116.47;;;2.30;;
8411;SDS011;4243;49.296;11.348;2023-05-10T08:55:41;117.17;;;2.40;;
8411;SDS011;4243;49.296;11.348;2023-05-10T08:58:09;116.67;;;2.70;;
8411;SDS011;4243;49.296;11.348;2023-05-10T09:00:36;116.33;;;3.00;;
8411;SDS011;4243;49.296;11.348;2023-05-10T09:03:04;117.07;;;3.03;;
8411;SDS011;4243;49.296;11.348;2023-05-10T09:05:32;116.50;;;3.27;;
8411;SDS011;4243;49.296;11.348;2023-05-10T09:08:00;116.60;;;3.00;;
8411;SDS011;4243;49.296;11.348;2023-05-10T09:10:27;116.87;;;2.87;;
8411;SDS011;4243;49.296;11.348;2023-05-10T09:12:56;116.77;;;2.80;;
8411;SDS011;4243;49.296;11.348;2023-05-10T09:15:24;116.50;;;3.00;;
8411;SDS011;4243;49.296;11.348;2023-05-10T09:17:52;116.90;;;2.97;;
8411;SDS011;4243;49.296;11.348;2023-05-10T09:20:22;116.57;;;2.80;;
8411;SDS011;4243;49.296;11.348;2023-05-10T09:22:50;116.33;;;2.67;;
8411;SDS011;4243;49.296;11.348;2023-05-10T09:25:17;116.60;;;2.47;;
8411;SDS011;4243;49.296;11.348;2023-05-10T09:27:46;117.00;;;2.50;;
8411;SDS011;4243;49.296;11.348;2023-05-10T09:30:18;116.70;;;2.73;;
8411;SDS011;4243;49.296;11.348;2023-05-10T09:32:55;117.07;;;2.50;;
8411;SDS011;4243;49.296;11.348;2023-05-10T09:35:26;116.77;;;2.50;;
8411;SDS011;4243;49.296;11.348;2023-05-10T09:37:57;116.53;;;2.47;;
8411;SDS011;4243;49.296;11.348;2023-05-10T09:40:29;116.27;;;2.50;;
8411;SDS011;4243;49.296;11.348;2023-05-10T09:42:59;117.47;;;2.57;;
8411;SDS011;4243;49.296;11.348;2023-05-10T09:45:33;117.10;;;2.40;;
8411;SDS011;4243;49.296;11.348;2023-05-10T09:48:04;117.37;;;2.37;;
8411;SDS011;4243;49.296;11.348;2023-05-10T09:50:32;117.20;;;2.60;;
8411;SDS011;4243;49.296;11.348;2023-05-10T09:53:01;116.10;;;2.40;;
8411;SDS011;4243;49.296;11.348;2023-05-10T09:58:12;116.87;;;2.70;;
8411;SDS011;4243;49.296;11.348;2023-05-10T10:00:41;117.40;;;2.80;;
8411;SDS011;4243;49.296;11.348;2023-05-10T10:03:15;117.07;;;2.90;;
8411;SDS011;4243;49.296;11.348;2023-05-10T10:05:46;116.70;;;2.77;;
8411;SDS011;4243;49.296;11.348;2023-05-10T10:08:15;116.60;;;2.70;;
8411;SDS011;4243;49.296;11.348;2023-05-10T10:10:43;116.93;;;2.70;;
8411;SDS011;4243;49.296;11.348;2023-05-10T10:13:12;116.87;;;3.20;;
8411;SDS011;4243;49.296;11.348;2023-05-10T10:15:40;116.27;;;3.07;;
8411;SDS011;4243;49.296;11.348;2023-05-10T10:18:13;115.77;;;2.57;;
8411;SDS011;4243;49.296;11.348;2023-05-10T10:20:41;115.37;;;2.20;;
8411;SDS011;4243;49.296;11.348;2023-05-10T10:23:09;114.70;;;2.00;;
8411;SDS011;4243;49.296;11.348;2023-05-10T10:25:36;114.87;;;2.30;;
8411;SDS011;4243;49.296;11.348;2023-05-10T10:28:11;115.03;;;2.30;;
8411;SDS011;4243;49.296;11.348;2023-05-10T10:31:32;115.50;;;2.80;;
8411;SDS011;4243;49.296;11.348;2023-05-10T10:34:08;115.87;;;3.40;;
8411;SDS011;4243;49.296;11.348;2023-05-10T10:36:40;115.70;;;2.87;;
8411;SDS011;4243;49.296;11.348;2023-05-10T10:39:13;115.47;;;2.57;;
8411;SDS011;4243;49.296;11.348;2023-05-10T10:41:55;116.00;;;2.30;;
8411;SDS011;4243;49.296;11.348;2023-05-10T10:44:25;116.03;;;2.40;;
8411;SDS011;4243;49.296;11.348;2023-05-10T10:52:27;115.87;;;2.60;;
8411;SDS011;4243;49.296;11.348;2023-05-10T10:55:10;116.07;;;2.67;;
8411;SDS011;4243;49.296;11.348;2023-05-10T10:57:49;115.10;;;2.80;;
8411;SDS011;4243;49.296;11.348;2023-05-10T11:03:04;115.97;;;2.57;;
8411;SDS011;4243;49.296;11.348;2023-05-10T11:05:48;115.40;;;2.60;;
8411;SDS011;4243;49.296;11.348;2023-05-10T11:11:03;116.40;;;2.37;;
8411;SDS011;4243;49.296;11.348;2023-05-10T11:13:43;116.47;;;2.53;;
8411;SDS011;4243;49.296;11.348;2023-05-10T11:18:58;117.10;;;3.10;;
8411;SDS011;4243;49.296;11.348;2023-05-10T11:21:32;116.90;;;2.90;;
8411;SDS011;4243;49.296;11.348;2023-05-10T11:24:00;116.93;;;3.00;;
8411;SDS011;4243;49.296;11.348;2023-05-10T11:26:33;117.00;;;2.97;;
8411;SDS011;4243;49.296;11.348;2023-05-10T11:29:02;116.97;;;3.10;;
8411;SDS011;4243;49.296;11.348;2023-05-10T11:31:31;116.10;;;2.97;;
8411;SDS011;4243;49.296;11.348;2023-05-10T11:33:59;116.67;;;3.00;;
8411;SDS011;4243;49.296;11.348;2023-05-10T11:36:28;115.60;;;2.67;;
8411;SDS011;4243;49.296;11.348;2023-05-10T11:39:00;115.87;;;2.30;;
8411;SDS011;4243;49.296;11.348;2023-05-10T11:41:29;115.50;;;2.37;;
8411;SDS011;4243;49.296;11.348;2023-05-10T11:43:57;115.10;;;2.20;;
8411;SDS011;4243;49.296;11.348;2023-05-10T11:46:25;115.00;;;2.50;;
8411;SDS011;4243;49.296;11.348;2023-05-10T11:48:58;115.90;;;2.73;;
8411;SDS011;4243;49.296;11.348;2023-05-10T11:51:28;115.77;;;2.90;;
8411;SDS011;4243;49.296;11.348;2023-05-10T11:53:55;114.73;;;2.87;;
8411;SDS011;4243;49.296;11.348;2023-05-10T11:56:23;115.57;;;2.63;;
8411;SDS011;4243;49.296;11.348;2023-05-10T11:58:56;115.37;;;2.20;;
8411;SDS011;4243;49.296;11.348;2023-05-10T12:01:24;115.37;;;1.90;;
8411;SDS011;4243;49.296;11.348;2023-05-10T12:03:54;115.20;;;2.00;;
8411;SDS011;4243;49.296;11.348;2023-05-10T12:06:27;114.90;;;1.83;;
8411;SDS011;4243;49.296;11.348;2023-05-10T12:08:58;114.50;;;1.80;;
8411;SDS011;4243;49.296;11.348;2023-05-10T12:11:35;115.20;;;1.83;;
8411;SDS011;4243;49.296;11.348;2023-05-10T12:14:09;115.57;;;1.90;;
8411;SDS011;4243;49.296;11.348;2023-05-10T12:16:36;115.83;;;1.80;;
8411;SDS011;4243;49.296;11.348;2023-05-10T12:19:04;115.87;;;1.97;;
8411;SDS011;4243;49.296;11.348;2023-05-10T12:21:32;116.07;;;1.97;;
8411;SDS011;4243;49.296;11.348;2023-05-10T12:24:01;115.37;;;1.80;;
8411;SDS011;4243;49.296;11.348;2023-05-10T12:26:29;115.40;;;1.83;;
8411;SDS011;4243;49.296;11.348;2023-05-10T12:29:12;114.80;;;1.80;;
8411;SDS011;4243;49.296;11.348;2023-05-10T12:31:56;115.17;;;1.80;;
8411;SDS011;4243;49.296;11.348;2023-05-10T12:34:26;115.43;;;1.90;;
8411;SDS011;4243;49.296;11.348;2023-05-10T12:37:02;115.00;;;1.90;;
8411;SDS011;4243;49.296;11.348;2023-05-10T12:39:43;115.40;;;2.00;;
8411;SDS011;4243;49.296;11.348;2023-05-10T12:42:12;115.37;;;2.00;;
8411;SDS011;4243;49.296;11.348;2023-05-10T12:44:39;115.60;;;2.00;;
8411;SDS011;4243;49.296;11.348;2023-05-10T12:47:06;115.40;;;2.10;;
8411;SDS011;4243;49.296;11.348;2023-05-10T12:49:34;115.77;;;1.90;;
8411;SDS011;4243;49.296;11.348;2023-05-10T12:52:01;115.37;;;1.90;;
8411;SDS011;4243;49.296;11.348;2023-05-10T12:54:29;115.47;;;1.87;;
8411;SDS011;4243;49.296;11.348;2023-05-10T12:56:56;115.40;;;2.00;;
8411;SDS011;4243;49.296;11.348;2023-05-10T12:59:23;115.70;;;2.00;;
8411;SDS011;4243;49.296;11.348;2023-05-10T13:01:50;116.20;;;2.40;;
8411;SDS011;4243;49.296;11.348;2023-05-10T13:04:17;116.13;;;2.10;;
8411;SDS011;4243;49.296;11.348;2023-05-10T13:06:45;116.67;;;2.20;;
8411;SDS011;4243;49.296;11.348;2023-05-10T13:09:13;116.87;;;2.20;;
8411;SDS011;4243;49.296;11.348;2023-05-10T13:11:40;116.47;;;2.20;;
8411;SDS011;4243;49.296;11.348;2023-05-10T13:14:07;116.13;;;2.20;;
8411;SDS011;4243;49.296;11.348;2023-05-10T13:16:34;116.30;;;2.17;;
8411;SDS011;4243;49.296;11.348;2023-05-10T13:19:01;116.27;;;2.30;;
8411;SDS011;4243;49.296;11.348;2023-05-10T13:21:29;116.20;;;2.20;;
8411;SDS011;4243;49.296;11.348;2023-05-10T13:23:56;116.03;;;2.20;;
8411;SDS011;4243;49.296;11.348;2023-05-10T13:26:23;116.60;;;2.17;;
8411;SDS011;4243;49.296;11.348;2023-05-10T13:28:51;116.60;;;2.20;;
8411;SDS011;4243;49.296;11.348;2023-05-10T13:31:21;116.30;;;2.27;;
8411;SDS011;4243;49.296;11.348;2023-05-10T13:33:49;116.30;;;2.23;;
8411;SDS011;4243;49.296;11.348;2023-05-10T13:36:16;116.20;;;2.20;;
8411;SDS011;4243;49.296;11.348;2023-05-10T13:38:43;116.30;;;2.37;;
8411;SDS011;4243;49.296;11.348;2023-05-10T13:41:10;116.00;;;2.17;;
8411;SDS011;4243;49.296;11.348;2023-05-10T13:43:37;115.73;;;2.07;;
8411;SDS011;4243;49.296;11.348;2023-05-10T13:46:04;115.80;;;1.97;;
8411;SDS011;4243;49.296;11.348;2023-05-10T13:48:32;115.87;;;1.90;;
8411;SDS011;4243;49.296;11.348;2023-05-10T13:50:59;115.57;;;1.77;;
8411;SDS011;4243;49.296;11.348;2023-05-10T13:53:26;115.03;;;1.90;;
8411;SDS011;4243;49.296;11.348;2023-05-10T13:55:54;115.80;;;1.90;;
8411;SDS011;4243;49.296;11.348;2023-05-10T13:58:21;115.67;;;1.87;;
8411;SDS011;4243;49.296;11.348;2023-05-10T14:00:48;115.57;;;1.90;;
8411;SDS011;4243;49.296;11.348;2023-05-10T14:03:15;116.27;;;1.97;;
8411;SDS011;4243;49.296;11.348;2023-05-10T14:05:42;116.37;;;2.07;;
8411;SDS011;4243;49.296;11.348;2023-05-10T14:08:11;116.20;;;2.10;;
8411;SDS011;4243;49.296;11.348;2023-05-10T14:10:39;115.90;;;2.07;;
8411;SDS011;4243;49.296;11.348;2023-05-10T14:13:06;116.40;;;2.20;;
8411;SDS011;4243;49.296;11.348;2023-05-10T14:15:34;116.30;;;2.17;;
8411;SDS011;4243;49.296;11.348;2023-05-10T14:18:01;116.87;;;2.20;;
8411;SDS011;4243;49.296;11.348;2023-05-10T14:20:28;116.10;;;2.20;;
8411;SDS011;4243;49.296;11.348;2023-05-10T14:22:56;116.40;;;2.07;;
8411;SDS011;4243;49.296;11.348;2023-05-10T14:25:23;116.37;;;2.17;;
8411;SDS011;4243;49.296;11.348;2023-05-10T14:27:51;116.47;;;2.23;;
8411;SDS011;4243;49.296;11.348;2023-05-10T14:30:20;116.00;;;2.20;;
8411;SDS011;4243;49.296;11.348;2023-05-10T14:32:48;116.53;;;2.10;;
8411;SDS011;4243;49.296;11.348;2023-05-10T14:35:15;116.10;;;2.10;;
8411;SDS011;4243;49.296;11.348;2023-05-10T14:37:45;115.97;;;2.20;;
8411;SDS011;4243;49.296;11.348;2023-05-10T14:40:12;116.10;;;2.07;;
8411;SDS011;4243;49.296;11.348;2023-05-10T14:42:41;116.17;;;2.07;;
8411;SDS011;4243;49.296;11.348;2023-05-10T14:45:09;116.20;;;2.20;;
8411;SDS011;4243;49.296;11.348;2023-05-10T14:47:38;116.30;;;2.10;;
8411;SDS011;4243;49.296;11.348;2023-05-10T14:50:05;115.87;;;2.20;;
8411;SDS011;4243;49.296;11.348;2023-05-10T14:52:33;116.33;;;2.40;;
8411;SDS011;4243;49.296;11.348;2023-05-10T14:55:01;116.97;;;2.30;;
8411;SDS011;4243;49.296;11.348;2023-05-10T14:57:28;116.60;;;2.33;;
8411;SDS011;4243;49.296;11.348;2023-05-10T14:59:55;116.57;;;2.40;;
8411;SDS011;4243;49.296;11.348;2023-05-10T15:02:23;116.70;;;2.30;;
8411;SDS011;4243;49.296;11.348;2023-05-10T15:04:51;116.20;;;2.20;;
8411;SDS011;4243;49.296;11.348;2023-05-10T15:07:18;116.07;;;2.10;;
8411;SDS011;4243;49.296;11.348;2023-05-10T15:09:46;115.97;;;2.03;;
8411;SDS011;4243;49.296;11.348;2023-05-10T15:12:13;115.77;;;2.30;;
8411;SDS011;4243;49.296;11.348;2023-05-10T15:14:40;116.47;;;2.10;;
8411;SDS011;4243;49.296;11.348;2023-05-10T15:17:07;116.50;;;2.20;;